sensor_id;sensor_type;location;lat;lon;timestamp;temperature;humidity
5138;DHT22;53959;53.626;11.410;2022-07-06T00:01:35;13.60;99.90
5138;DHT22;53959;53.626;11.410;2022-07-06T00:04:02;13.60;99.90
5138;DHT22;53959;53.626;11.410;2022-07-06T00:06:28;13.50;99.90
5138;DHT22;53959;53.626;11.410;2022-07-06T00:08:53;13.50;99.90
5138;DHT22;53959;53.626;11.410;2022-07-06T00:11:19;13.40;99.90
5138;DHT22;53959;53.626;11.410;2022-07-06T00:13:45;13.50;99.90
5138;DHT22;53959;53.626;11.410;2022-07-06T00:16:10;13.50;99.90
5138;DHT22;53959;53.626;11.410;2022-07-06T00:18:36;13.50;99.90
5138;DHT22;53959;53.626;11.410;2022-07-06T00:21:01;13.60;99.90
5138;DHT22;53959;53.626;11.410;2022-07-06T00:23:27;13.50;99.90
5138;DHT22;53959;53.626;11.410;2022-07-06T00:25:52;13.50;99.90
5138;DHT22;53959;53.626;11.410;2022-07-06T00:28:18;13.60;99.90
5138;DHT22;53959;53.626;11.410;2022-07-06T00:30:43;13.50;99.90
5138;DHT22;53959;53.626;11.410;2022-07-06T00:33:09;13.50;99.90
5138;DHT22;53959;53.626;11.410;2022-07-06T00:35:34;13.50;99.90
5138;DHT22;53959;53.626;11.410;2022-07-06T00:38:00;13.60;99.90
5138;DHT22;53959;53.626;11.410;2022-07-06T00:40:26;13.60;99.90
5138;DHT22;53959;53.626;11.410;2022-07-06T00:42:52;13.40;99.90
5138;DHT22;53959;53.626;11.410;2022-07-06T00:45:18;13.60;99.90
5138;DHT22;53959;53.626;11.410;2022-07-06T00:47:44;13.60;99.90
5138;DHT22;53959;53.626;11.410;2022-07-06T00:50:11;13.60;99.90
5138;DHT22;53959;53.626;11.410;2022-07-06T00:52:41;13.70;99.90
5138;DHT22;53959;53.626;11.410;2022-07-06T00:55:11;13.60;99.90
5138;DHT22;53959;53.626;11.410;2022-07-06T00:57:38;13.70;99.90
5138;DHT22;53959;53.626;11.410;2022-07-06T01:00:05;13.60;99.90
5138;DHT22;53959;53.626;11.410;2022-07-06T01:02:32;13.70;99.90
5138;DHT22;53959;53.626;11.410;2022-07-06T01:04:57;13.70;99.90
5138;DHT22;53959;53.626;11.410;2022-07-06T01:07:24;13.70;99.90
5138;DHT22;53959;53.626;11.410;2022-07-06T01:09:50;13.70;99.90
5138;DHT22;53959;53.626;11.410;2022-07-06T01:12:15;13.80;99.90
5138;DHT22;53959;53.626;11.410;2022-07-06T01:14:42;13.90;99.90
5138;DHT22;53959;53.626;11.410;2022-07-06T01:17:08;13.90;99.90
5138;DHT22;53959;53.626;11.410;2022-07-06T01:19:34;13.90;99.90
5138;DHT22;53959;53.626;11.410;2022-07-06T01:21:59;13.90;99.90
5138;DHT22;53959;53.626;11.410;2022-07-06T01:24:25;14.00;99.90
5138;DHT22;53959;53.626;11.410;2022-07-06T01:26:51;14.00;99.90
5138;DHT22;53959;53.626;11.410;2022-07-06T01:29:17;13.90;99.90
5138;DHT22;53959;53.626;11.410;2022-07-06T01:31:47;13.90;99.90
5138;DHT22;53959;53.626;11.410;2022-07-06T01:34:19;13.90;99.90
5138;DHT22;53959;53.626;11.410;2022-07-06T01:36:45;14.10;99.90
5138;DHT22;53959;53.626;11.410;2022-07-06T01:39:11;13.90;99.90
5138;DHT22;53959;53.626;11.410;2022-07-06T01:41:37;13.90;99.90
5138;DHT22;53959;53.626;11.410;2022-07-06T01:44:03;13.90;99.90
5138;DHT22;53959;53.626;11.410;2022-07-06T01:46:29;13.90;99.90
5138;DHT22;53959;53.626;11.410;2022-07-06T01:48:55;14.00;99.90
5138;DHT22;53959;53.626;11.410;2022-07-06T01:51:21;13.90;99.90
5138;DHT22;53959;53.626;11.410;2022-07-06T01:53:47;13.90;99.90
5138;DHT22;53959;53.626;11.410;2022-07-06T01:56:13;13.90;99.90
5138;DHT22;53959;53.626;11.410;2022-07-06T01:58:39;13.80;99.90
5138;DHT22;53959;53.626;11.410;2022-07-06T02:01:13;13.80;99.90
5138;DHT22;53959;53.626;11.410;2022-07-06T02:03:39;13.80;99.90
5138;DHT22;53959;53.626;11.410;2022-07-06T02:06:05;13.80;99.90
5138;DHT22;53959;53.626;11.410;2022-07-06T02:08:32;13.60;99.90
5138;DHT22;53959;53.626;11.410;2022-07-06T02:10:58;13.60;99.90
5138;DHT22;53959;53.626;11.410;2022-07-06T02:13:24;13.70;99.90
5138;DHT22;53959;53.626;11.410;2022-07-06T02:15:50;13.70;99.90
5138;DHT22;53959;53.626;11.410;2022-07-06T02:18:15;13.70;99.90
5138;DHT22;53959;53.626;11.410;2022-07-06T02:20:41;13.60;99.90
5138;DHT22;53959;53.626;11.410;2022-07-06T02:23:07;13.60;99.90
5138;DHT22;53959;53.626;11.410;2022-07-06T02:25:32;13.50;99.90
5138;DHT22;53959;53.626;11.410;2022-07-06T02:27:58;13.60;99.90
5138;DHT22;53959;53.626;11.410;2022-07-06T02:30:23;13.60;99.90
5138;DHT22;53959;53.626;11.410;2022-07-06T02:32:49;13.40;99.90
5138;DHT22;53959;53.626;11.410;2022-07-06T02:35:14;13.60;99.90
5138;DHT22;53959;53.626;11.410;2022-07-06T02:37:40;13.50;99.90
5138;DHT22;53959;53.626;11.410;2022-07-06T02:40:06;13.50;99.90
5138;DHT22;53959;53.626;11.410;2022-07-06T02:42:32;13.60;99.90
5138;DHT22;53959;53.626;11.410;2022-07-06T02:44:58;13.50;99.90
5138;DHT22;53959;53.626;11.410;2022-07-06T02:47:23;13.50;99.90
5138;DHT22;53959;53.626;11.410;2022-07-06T02:49:49;13.50;99.90
5138;DHT22;53959;53.626;11.410;2022-07-06T02:52:14;13.40;99.90
5138;DHT22;53959;53.626;11.410;2022-07-06T02:54:40;13.40;99.90
5138;DHT22;53959;53.626;11.410;2022-07-06T02:57:05;13.40;99.90
5138;DHT22;53959;53.626;11.410;2022-07-06T02:59:31;13.50;99.90
5138;DHT22;53959;53.626;11.410;2022-07-06T03:01:56;13.50;99.90
5138;DHT22;53959;53.626;11.410;2022-07-06T03:04:22;13.50;99.90
5138;DHT22;53959;53.626;11.410;2022-07-06T03:06:47;13.50;99.90
5138;DHT22;53959;53.626;11.410;2022-07-06T03:09:13;13.50;99.90
5138;DHT22;53959;53.626;11.410;2022-07-06T03:11:38;13.60;99.90
5138;DHT22;53959;53.626;11.410;2022-07-06T03:14:05;13.50;99.90
5138;DHT22;53959;53.626;11.410;2022-07-06T03:16:31;13.50;99.90
5138;DHT22;53959;53.626;11.410;2022-07-06T03:21:32;13.70;99.90
5138;DHT22;53959;53.626;11.410;2022-07-06T03:23:57;13.50;99.90
5138;DHT22;53959;53.626;11.410;2022-07-06T03:26:23;13.50;99.90
5138;DHT22;53959;53.626;11.410;2022-07-06T03:28:49;13.50;99.90
5138;DHT22;53959;53.626;11.410;2022-07-06T03:31:14;13.60;99.90
5138;DHT22;53959;53.626;11.410;2022-07-06T03:33:40;13.70;99.90
5138;DHT22;53959;53.626;11.410;2022-07-06T03:36:06;13.60;99.90
5138;DHT22;53959;53.626;11.410;2022-07-06T03:38:33;13.60;99.90
5138;DHT22;53959;53.626;11.410;2022-07-06T03:40:58;13.70;99.90
5138;DHT22;53959;53.626;11.410;2022-07-06T03:43:24;13.70;99.90
5138;DHT22;53959;53.626;11.410;2022-07-06T03:45:49;13.60;99.90
5138;DHT22;53959;53.626;11.410;2022-07-06T03:48:14;13.60;99.90
5138;DHT22;53959;53.626;11.410;2022-07-06T03:50:40;13.60;99.90
5138;DHT22;53959;53.626;11.410;2022-07-06T03:53:05;13.60;99.90
5138;DHT22;53959;53.626;11.410;2022-07-06T03:55:31;13.60;99.90
5138;DHT22;53959;53.626;11.410;2022-07-06T03:57:57;13.70;99.90
5138;DHT22;53959;53.626;11.410;2022-07-06T04:00:22;13.70;99.90
5138;DHT22;53959;53.626;11.410;2022-07-06T04:02:48;13.60;99.90
5138;DHT22;53959;53.626;11.410;2022-07-06T04:05:13;13.70;99.90
5138;DHT22;53959;53.626;11.410;2022-07-06T04:07:39;13.70;99.90
5138;DHT22;53959;53.626;11.410;2022-07-06T04:10:05;13.70;99.90
5138;DHT22;53959;53.626;11.410;2022-07-06T04:12:31;13.80;99.90
5138;DHT22;53959;53.626;11.410;2022-07-06T04:14:57;13.90;99.90
5138;DHT22;53959;53.626;11.410;2022-07-06T04:17:23;13.90;99.90
5138;DHT22;53959;53.626;11.410;2022-07-06T04:20:08;13.90;99.90
5138;DHT22;53959;53.626;11.410;2022-07-06T04:22:37;13.80;99.90
5138;DHT22;53959;53.626;11.410;2022-07-06T04:25:03;13.90;99.90
5138;DHT22;53959;53.626;11.410;2022-07-06T04:27:29;14.00;99.90
5138;DHT22;53959;53.626;11.410;2022-07-06T04:29:54;13.80;99.90
5138;DHT22;53959;53.626;11.410;2022-07-06T04:32:20;13.90;99.90
5138;DHT22;53959;53.626;11.410;2022-07-06T04:34:45;13.80;99.90
5138;DHT22;53959;53.626;11.410;2022-07-06T04:37:11;13.90;99.90
5138;DHT22;53959;53.626;11.410;2022-07-06T04:39:36;14.00;99.90
5138;DHT22;53959;53.626;11.410;2022-07-06T04:42:02;14.10;99.90
5138;DHT22;53959;53.626;11.410;2022-07-06T04:44:28;14.10;99.90
5138;DHT22;53959;53.626;11.410;2022-07-06T04:46:54;14.20;99.90
5138;DHT22;53959;53.626;11.410;2022-07-06T04:49:19;14.20;99.90
5138;DHT22;53959;53.626;11.410;2022-07-06T04:51:45;14.20;99.90
5138;DHT22;53959;53.626;11.410;2022-07-06T04:54:10;14.30;99.90
5138;DHT22;53959;53.626;11.410;2022-07-06T04:56:36;14.40;99.90
5138;DHT22;53959;53.626;11.410;2022-07-06T04:59:01;14.30;99.90
5138;DHT22;53959;53.626;11.410;2022-07-06T05:01:27;14.20;99.90
5138;DHT22;53959;53.626;11.410;2022-07-06T05:03:52;14.20;99.90
5138;DHT22;53959;53.626;11.410;2022-07-06T05:06:18;14.40;99.90
5138;DHT22;53959;53.626;11.410;2022-07-06T05:08:45;14.40;99.90
5138;DHT22;53959;53.626;11.410;2022-07-06T05:11:11;14.30;99.90
5138;DHT22;53959;53.626;11.410;2022-07-06T05:13:36;14.40;99.90
5138;DHT22;53959;53.626;11.410;2022-07-06T05:16:02;14.50;99.90
5138;DHT22;53959;53.626;11.410;2022-07-06T05:18:27;14.50;99.90
5138;DHT22;53959;53.626;11.410;2022-07-06T05:20:53;14.70;99.90
5138;DHT22;53959;53.626;11.410;2022-07-06T05:23:18;14.70;99.90
5138;DHT22;53959;53.626;11.410;2022-07-06T05:25:44;14.90;99.90
5138;DHT22;53959;53.626;11.410;2022-07-06T05:28:09;14.90;99.90
5138;DHT22;53959;53.626;11.410;2022-07-06T05:30:35;15.00;99.90
5138;DHT22;53959;53.626;11.410;2022-07-06T05:33:00;15.20;99.90
5138;DHT22;53959;53.626;11.410;2022-07-06T05:35:26;15.10;99.90
5138;DHT22;53959;53.626;11.410;2022-07-06T05:37:51;15.10;99.90
5138;DHT22;53959;53.626;11.410;2022-07-06T05:40:17;15.20;99.90
5138;DHT22;53959;53.626;11.410;2022-07-06T05:42:42;15.30;99.90
5138;DHT22;53959;53.626;11.410;2022-07-06T05:45:08;14.80;99.90
5138;DHT22;53959;53.626;11.410;2022-07-06T05:47:34;14.30;99.90
5138;DHT22;53959;53.626;11.410;2022-07-06T05:50:18;14.30;99.90
5138;DHT22;53959;53.626;11.410;2022-07-06T05:52:55;14.20;99.90
5138;DHT22;53959;53.626;11.410;2022-07-06T05:55:21;14.10;99.90
5138;DHT22;53959;53.626;11.410;2022-07-06T05:57:47;14.00;99.90
5138;DHT22;53959;53.626;11.410;2022-07-06T06:00:13;13.70;99.90
5138;DHT22;53959;53.626;11.410;2022-07-06T06:02:40;13.50;99.90
5138;DHT22;53959;53.626;11.410;2022-07-06T06:05:07;13.80;99.90
5138;DHT22;53959;53.626;11.410;2022-07-06T06:07:35;13.50;99.90
5138;DHT22;53959;53.626;11.410;2022-07-06T06:10:03;13.70;99.90
5138;DHT22;53959;53.626;11.410;2022-07-06T06:12:28;13.90;99.90
5138;DHT22;53959;53.626;11.410;2022-07-06T06:14:54;14.00;99.90
5138;DHT22;53959;53.626;11.410;2022-07-06T06:17:19;14.10;99.90
5138;DHT22;53959;53.626;11.410;2022-07-06T06:19:45;13.80;99.90
5138;DHT22;53959;53.626;11.410;2022-07-06T06:22:10;14.10;99.90
5138;DHT22;53959;53.626;11.410;2022-07-06T06:24:36;14.30;99.90
5138;DHT22;53959;53.626;11.410;2022-07-06T06:27:02;14.40;99.90
5138;DHT22;53959;53.626;11.410;2022-07-06T06:29:27;14.50;99.90
5138;DHT22;53959;53.626;11.410;2022-07-06T06:31:53;14.50;99.90
5138;DHT22;53959;53.626;11.410;2022-07-06T06:34:18;14.50;99.90
5138;DHT22;53959;53.626;11.410;2022-07-06T06:36:44;14.30;99.90
5138;DHT22;53959;53.626;11.410;2022-07-06T06:39:09;14.50;99.90
5138;DHT22;53959;53.626;11.410;2022-07-06T06:41:35;14.50;99.90
5138;DHT22;53959;53.626;11.410;2022-07-06T06:44:00;14.50;99.90
5138;DHT22;53959;53.626;11.410;2022-07-06T06:46:26;14.60;99.90
5138;DHT22;53959;53.626;11.410;2022-07-06T06:48:51;14.60;99.90
5138;DHT22;53959;53.626;11.410;2022-07-06T06:51:17;14.60;99.90
5138;DHT22;53959;53.626;11.410;2022-07-06T06:53:42;14.70;99.90
5138;DHT22;53959;53.626;11.410;2022-07-06T06:56:08;14.90;99.90
5138;DHT22;53959;53.626;11.410;2022-07-06T06:58:34;15.30;99.90
5138;DHT22;53959;53.626;11.410;2022-07-06T07:00:59;15.10;99.90
5138;DHT22;53959;53.626;11.410;2022-07-06T07:03:25;15.30;99.90
5138;DHT22;53959;53.626;11.410;2022-07-06T07:05:50;15.30;99.90
5138;DHT22;53959;53.626;11.410;2022-07-06T07:08:16;15.50;99.90
5138;DHT22;53959;53.626;11.410;2022-07-06T07:10:41;15.40;99.90
5138;DHT22;53959;53.626;11.410;2022-07-06T07:13:07;15.40;99.90
5138;DHT22;53959;53.626;11.410;2022-07-06T07:15:32;15.60;99.90
5138;DHT22;53959;53.626;11.410;2022-07-06T07:17:58;16.00;99.90
5138;DHT22;53959;53.626;11.410;2022-07-06T07:20:24;16.00;99.90
5138;DHT22;53959;53.626;11.410;2022-07-06T07:22:50;16.10;99.90
5138;DHT22;53959;53.626;11.410;2022-07-06T07:25:16;16.20;1.00
5138;DHT22;53959;53.626;11.410;2022-07-06T07:27:41;15.90;1.00
5138;DHT22;53959;53.626;11.410;2022-07-06T07:30:07;15.70;99.90
5138;DHT22;53959;53.626;11.410;2022-07-06T07:32:33;15.50;99.90
5138;DHT22;53959;53.626;11.410;2022-07-06T07:34:59;15.80;1.00
5138;DHT22;53959;53.626;11.410;2022-07-06T07:37:24;16.00;83.00
5138;DHT22;53959;53.626;11.410;2022-07-06T07:39:50;16.00;1.00
5138;DHT22;53959;53.626;11.410;2022-07-06T07:42:15;16.00;99.90
5138;DHT22;53959;53.626;11.410;2022-07-06T07:44:41;16.30;1.00
5138;DHT22;53959;53.626;11.410;2022-07-06T07:47:06;16.40;99.90
5138;DHT22;53959;53.626;11.410;2022-07-06T07:49:32;16.50;99.90
5138;DHT22;53959;53.626;11.410;2022-07-06T07:51:58;16.60;1.00
5138;DHT22;53959;53.626;11.410;2022-07-06T07:54:23;16.40;1.00
5138;DHT22;53959;53.626;11.410;2022-07-06T07:56:49;15.90;99.90
5138;DHT22;53959;53.626;11.410;2022-07-06T07:59:14;15.70;99.90
5138;DHT22;53959;53.626;11.410;2022-07-06T08:01:40;15.50;99.90
5138;DHT22;53959;53.626;11.410;2022-07-06T08:04:06;15.50;99.90
5138;DHT22;53959;53.626;11.410;2022-07-06T08:06:32;15.50;99.90
5138;DHT22;53959;53.626;11.410;2022-07-06T08:08:57;15.60;99.90
5138;DHT22;53959;53.626;11.410;2022-07-06T08:11:23;15.70;99.90
5138;DHT22;53959;53.626;11.410;2022-07-06T08:13:49;15.90;99.90
5138;DHT22;53959;53.626;11.410;2022-07-06T08:16:14;15.90;99.90
5138;DHT22;53959;53.626;11.410;2022-07-06T08:18:40;15.70;99.90
5138;DHT22;53959;53.626;11.410;2022-07-06T08:21:05;15.50;86.50
5138;DHT22;53959;53.626;11.410;2022-07-06T08:23:31;15.70;1.00
5138;DHT22;53959;53.626;11.410;2022-07-06T08:26:00;15.70;99.90
5138;DHT22;53959;53.626;11.410;2022-07-06T08:28:26;15.70;1.00
5138;DHT22;53959;53.626;11.410;2022-07-06T08:30:51;15.80;1.00
5138;DHT22;53959;53.626;11.410;2022-07-06T08:33:17;15.70;1.00
5138;DHT22;53959;53.626;11.410;2022-07-06T08:35:42;15.90;99.80
5138;DHT22;53959;53.626;11.410;2022-07-06T08:38:08;16.20;99.90
5138;DHT22;53959;53.626;11.410;2022-07-06T08:40:34;16.20;1.00
5138;DHT22;53959;53.626;11.410;2022-07-06T08:43:00;16.40;99.90
5138;DHT22;53959;53.626;11.410;2022-07-06T08:45:26;16.60;56.30
5138;DHT22;53959;53.626;11.410;2022-07-06T08:47:54;16.80;1.00
5138;DHT22;53959;53.626;11.410;2022-07-06T08:50:20;17.00;99.90
5138;DHT22;53959;53.626;11.410;2022-07-06T08:52:47;16.90;1.00
5138;DHT22;53959;53.626;11.410;2022-07-06T08:55:13;17.20;99.90
5138;DHT22;53959;53.626;11.410;2022-07-06T08:57:39;16.90;99.90
5138;DHT22;53959;53.626;11.410;2022-07-06T09:00:08;17.10;1.00
5138;DHT22;53959;53.626;11.410;2022-07-06T09:02:34;17.30;99.90
5138;DHT22;53959;53.626;11.410;2022-07-06T09:05:02;17.70;11.50
5138;DHT22;53959;53.626;11.410;2022-07-06T09:07:28;17.60;99.90
5138;DHT22;53959;53.626;11.410;2022-07-06T09:09:55;17.50;57.60
5138;DHT22;53959;53.626;11.410;2022-07-06T09:12:21;17.50;99.90
5138;DHT22;53959;53.626;11.410;2022-07-06T09:14:47;17.50;84.40
5138;DHT22;53959;53.626;11.410;2022-07-06T09:17:13;17.30;54.60
5138;DHT22;53959;53.626;11.410;2022-07-06T09:19:39;17.20;99.90
5138;DHT22;53959;53.626;11.410;2022-07-06T09:22:05;17.40;99.90
5138;DHT22;53959;53.626;11.410;2022-07-06T09:24:31;17.90;32.70
5138;DHT22;53959;53.626;11.410;2022-07-06T09:26:58;18.30;1.00
5138;DHT22;53959;53.626;11.410;2022-07-06T09:29:31;18.10;1.00
5138;DHT22;53959;53.626;11.410;2022-07-06T09:32:02;18.00;1.00
5138;DHT22;53959;53.626;11.410;2022-07-06T09:34:45;18.90;99.90
5138;DHT22;53959;53.626;11.410;2022-07-06T09:37:11;18.40;99.90
5138;DHT22;53959;53.626;11.410;2022-07-06T09:39:37;18.60;99.90
5138;DHT22;53959;53.626;11.410;2022-07-06T09:42:04;18.40;99.90
5138;DHT22;53959;53.626;11.410;2022-07-06T09:44:35;18.70;99.90
5138;DHT22;53959;53.626;11.410;2022-07-06T09:47:04;19.10;99.90
5138;DHT22;53959;53.626;11.410;2022-07-06T09:49:30;19.40;99.90
5138;DHT22;53959;53.626;11.410;2022-07-06T09:51:58;18.60;99.90
5138;DHT22;53959;53.626;11.410;2022-07-06T09:54:24;19.70;99.90
5138;DHT22;53959;53.626;11.410;2022-07-06T09:56:51;20.60;1.00
5138;DHT22;53959;53.626;11.410;2022-07-06T09:59:27;20.30;1.00
5138;DHT22;53959;53.626;11.410;2022-07-06T10:01:55;21.10;1.00
5138;DHT22;53959;53.626;11.410;2022-07-06T10:04:23;20.80;1.00
5138;DHT22;53959;53.626;11.410;2022-07-06T10:06:49;20.70;1.00
5138;DHT22;53959;53.626;11.410;2022-07-06T10:09:15;20.50;1.00
5138;DHT22;53959;53.626;11.410;2022-07-06T10:11:56;21.00;1.00
5138;DHT22;53959;53.626;11.410;2022-07-06T10:14:24;20.60;1.00
5138;DHT22;53959;53.626;11.410;2022-07-06T10:16:51;20.20;1.00
5138;DHT22;53959;53.626;11.410;2022-07-06T10:19:19;20.10;1.00
5138;DHT22;53959;53.626;11.410;2022-07-06T10:21:45;20.00;1.00
5138;DHT22;53959;53.626;11.410;2022-07-06T10:24:11;19.80;1.00
5138;DHT22;53959;53.626;11.410;2022-07-06T10:26:38;19.80;1.00
5138;DHT22;53959;53.626;11.410;2022-07-06T10:29:06;18.70;1.00
5138;DHT22;53959;53.626;11.410;2022-07-06T10:31:34;19.50;1.00
5138;DHT22;53959;53.626;11.410;2022-07-06T10:34:02;19.50;1.00
5138;DHT22;53959;53.626;11.410;2022-07-06T10:36:29;19.00;1.00
5138;DHT22;53959;53.626;11.410;2022-07-06T10:38:55;19.50;1.00
5138;DHT22;53959;53.626;11.410;2022-07-06T10:41:34;20.00;1.00
5138;DHT22;53959;53.626;11.410;2022-07-06T10:44:16;19.60;1.00
5138;DHT22;53959;53.626;11.410;2022-07-06T10:46:50;19.80;1.00
5138;DHT22;53959;53.626;11.410;2022-07-06T10:49:16;19.70;1.00
5138;DHT22;53959;53.626;11.410;2022-07-06T10:51:42;19.60;1.00
5138;DHT22;53959;53.626;11.410;2022-07-06T10:54:09;19.30;1.00
5138;DHT22;53959;53.626;11.410;2022-07-06T10:59:17;19.60;1.00
5138;DHT22;53959;53.626;11.410;2022-07-06T11:04:36;19.50;1.00
5138;DHT22;53959;53.626;11.410;2022-07-06T11:07:15;19.20;1.00
5138;DHT22;53959;53.626;11.410;2022-07-06T11:09:53;19.20;1.00
5138;DHT22;53959;53.626;11.410;2022-07-06T11:12:19;18.80;1.00
5138;DHT22;53959;53.626;11.410;2022-07-06T11:14:48;18.60;1.00
5138;DHT22;53959;53.626;11.410;2022-07-06T11:17:14;18.60;1.00
5138;DHT22;53959;53.626;11.410;2022-07-06T11:19:57;18.50;1.00
5138;DHT22;53959;53.626;11.410;2022-07-06T11:22:24;18.60;1.00
5138;DHT22;53959;53.626;11.410;2022-07-06T11:24:50;18.60;1.00
5138;DHT22;53959;53.626;11.410;2022-07-06T11:27:17;18.60;1.00
5138;DHT22;53959;53.626;11.410;2022-07-06T11:29:43;18.50;1.00
5138;DHT22;53959;53.626;11.410;2022-07-06T11:32:11;18.50;1.00
5138;DHT22;53959;53.626;11.410;2022-07-06T11:34:41;18.80;1.00
5138;DHT22;53959;53.626;11.410;2022-07-06T11:37:13;18.20;1.00
5138;DHT22;53959;53.626;11.410;2022-07-06T11:39:43;18.40;1.00
5138;DHT22;53959;53.626;11.410;2022-07-06T11:42:13;18.60;1.00
5138;DHT22;53959;53.626;11.410;2022-07-06T11:44:40;18.10;1.00
5138;DHT22;53959;53.626;11.410;2022-07-06T11:47:07;18.00;1.00
5138;DHT22;53959;53.626;11.410;2022-07-06T11:49:34;18.20;1.00
5138;DHT22;53959;53.626;11.410;2022-07-06T11:52:05;17.70;1.00
5138;DHT22;53959;53.626;11.410;2022-07-06T11:54:32;18.00;1.00
5138;DHT22;53959;53.626;11.410;2022-07-06T11:56:59;18.00;1.00
5138;DHT22;53959;53.626;11.410;2022-07-06T11:59:27;17.50;1.00
5138;DHT22;53959;53.626;11.410;2022-07-06T12:02:00;17.90;1.00
5138;DHT22;53959;53.626;11.410;2022-07-06T12:04:26;18.30;1.00
5138;DHT22;53959;53.626;11.410;2022-07-06T12:06:51;18.00;1.00
5138;DHT22;53959;53.626;11.410;2022-07-06T12:09:17;17.70;6.60
5138;DHT22;53959;53.626;11.410;2022-07-06T12:11:45;17.50;66.50
5138;DHT22;53959;53.626;11.410;2022-07-06T12:14:17;18.50;99.90
5138;DHT22;53959;53.626;11.410;2022-07-06T12:16:43;19.00;28.60
5138;DHT22;53959;53.626;11.410;2022-07-06T12:19:09;18.80;26.90
5138;DHT22;53959;53.626;11.410;2022-07-06T12:21:42;19.00;1.00
5138;DHT22;53959;53.626;11.410;2022-07-06T12:24:08;19.10;1.00
5138;DHT22;53959;53.626;11.410;2022-07-06T12:26:39;19.60;1.00
5138;DHT22;53959;53.626;11.410;2022-07-06T12:29:11;19.40;1.00
5138;DHT22;53959;53.626;11.410;2022-07-06T12:34:15;20.00;1.00
5138;DHT22;53959;53.626;11.410;2022-07-06T12:39:20;19.30;1.00
5138;DHT22;53959;53.626;11.410;2022-07-06T12:41:47;19.50;1.00
5138;DHT22;53959;53.626;11.410;2022-07-06T12:44:14;19.40;1.00
5138;DHT22;53959;53.626;11.410;2022-07-06T12:46:41;19.40;1.00
5138;DHT22;53959;53.626;11.410;2022-07-06T12:49:21;19.40;1.00
5138;DHT22;53959;53.626;11.410;2022-07-06T12:52:13;19.40;1.00
5138;DHT22;53959;53.626;11.410;2022-07-06T12:54:44;19.30;1.00
5138;DHT22;53959;53.626;11.410;2022-07-06T12:57:14;19.10;1.00
5138;DHT22;53959;53.626;11.410;2022-07-06T13:00:00;19.10;1.00
5138;DHT22;53959;53.626;11.410;2022-07-06T13:02:32;19.10;1.00
5138;DHT22;53959;53.626;11.410;2022-07-06T13:05:16;19.20;1.00
5138;DHT22;53959;53.626;11.410;2022-07-06T13:07:46;19.30;1.00
5138;DHT22;53959;53.626;11.410;2022-07-06T13:10:14;19.20;1.00
5138;DHT22;53959;53.626;11.410;2022-07-06T13:12:40;18.90;1.00
5138;DHT22;53959;53.626;11.410;2022-07-06T13:15:07;19.00;1.00
5138;DHT22;53959;53.626;11.410;2022-07-06T13:17:33;19.20;1.00
5138;DHT22;53959;53.626;11.410;2022-07-06T13:19:59;19.60;1.00
5138;DHT22;53959;53.626;11.410;2022-07-06T13:22:25;19.20;1.00
5138;DHT22;53959;53.626;11.410;2022-07-06T13:24:50;19.40;1.00
5138;DHT22;53959;53.626;11.410;2022-07-06T13:27:16;19.20;1.00
5138;DHT22;53959;53.626;11.410;2022-07-06T13:29:42;19.00;1.00
5138;DHT22;53959;53.626;11.410;2022-07-06T13:32:07;19.30;1.00
5138;DHT22;53959;53.626;11.410;2022-07-06T13:34:33;19.50;1.00
5138;DHT22;53959;53.626;11.410;2022-07-06T13:37:01;19.60;1.00
5138;DHT22;53959;53.626;11.410;2022-07-06T13:39:27;19.60;1.00
5138;DHT22;53959;53.626;11.410;2022-07-06T13:41:53;19.30;1.00
5138;DHT22;53959;53.626;11.410;2022-07-06T13:44:19;19.10;1.00
5138;DHT22;53959;53.626;11.410;2022-07-06T13:46:44;18.90;1.00
5138;DHT22;53959;53.626;11.410;2022-07-06T13:49:10;19.00;1.00
5138;DHT22;53959;53.626;11.410;2022-07-06T13:51:36;19.00;1.00
5138;DHT22;53959;53.626;11.410;2022-07-06T13:54:01;19.20;1.00
5138;DHT22;53959;53.626;11.410;2022-07-06T13:56:27;19.20;1.00
5138;DHT22;53959;53.626;11.410;2022-07-06T13:58:53;18.80;1.00
5138;DHT22;53959;53.626;11.410;2022-07-06T14:01:19;18.80;1.00
5138;DHT22;53959;53.626;11.410;2022-07-06T14:03:45;18.20;1.00
5138;DHT22;53959;53.626;11.410;2022-07-06T14:06:11;18.20;1.00
5138;DHT22;53959;53.626;11.410;2022-07-06T14:08:38;18.10;1.00
5138;DHT22;53959;53.626;11.410;2022-07-06T14:11:05;18.00;1.00
5138;DHT22;53959;53.626;11.410;2022-07-06T14:13:31;17.40;90.50
5138;DHT22;53959;53.626;11.410;2022-07-06T14:15:57;17.40;99.90
5138;DHT22;53959;53.626;11.410;2022-07-06T14:18:23;17.30;99.90
5138;DHT22;53959;53.626;11.410;2022-07-06T14:20:49;17.30;99.90
5138;DHT22;53959;53.626;11.410;2022-07-06T14:23:16;17.30;99.90
5138;DHT22;53959;53.626;11.410;2022-07-06T14:25:42;17.20;99.90
5138;DHT22;53959;53.626;11.410;2022-07-06T14:28:08;17.20;99.90
5138;DHT22;53959;53.626;11.410;2022-07-06T14:30:35;17.20;99.90
5138;DHT22;53959;53.626;11.410;2022-07-06T14:33:05;17.40;99.90
5138;DHT22;53959;53.626;11.410;2022-07-06T14:35:36;17.70;99.90
5138;DHT22;53959;53.626;11.410;2022-07-06T14:38:03;17.80;99.90
5138;DHT22;53959;53.626;11.410;2022-07-06T14:40:29;17.80;99.90
5138;DHT22;53959;53.626;11.410;2022-07-06T14:42:56;17.90;99.90
5138;DHT22;53959;53.626;11.410;2022-07-06T14:45:22;17.80;99.90
5138;DHT22;53959;53.626;11.410;2022-07-06T14:47:47;17.90;99.90
5138;DHT22;53959;53.626;11.410;2022-07-06T14:50:13;17.90;99.90
5138;DHT22;53959;53.626;11.410;2022-07-06T14:52:39;18.00;99.90
5138;DHT22;53959;53.626;11.410;2022-07-06T14:55:04;18.20;71.20
5138;DHT22;53959;53.626;11.410;2022-07-06T14:57:30;18.10;89.20
5138;DHT22;53959;53.626;11.410;2022-07-06T14:59:55;18.10;97.50
5138;DHT22;53959;53.626;11.410;2022-07-06T15:02:21;18.50;85.10
5138;DHT22;53959;53.626;11.410;2022-07-06T15:04:46;18.90;35.50
5138;DHT22;53959;53.626;11.410;2022-07-06T15:07:12;18.80;43.60
5138;DHT22;53959;53.626;11.410;2022-07-06T15:09:38;18.90;13.30
5138;DHT22;53959;53.626;11.410;2022-07-06T15:12:04;19.00;1.00
5138;DHT22;53959;53.626;11.410;2022-07-06T15:14:29;18.70;5.00
5138;DHT22;53959;53.626;11.410;2022-07-06T15:16:55;18.40;53.00
5138;DHT22;53959;53.626;11.410;2022-07-06T15:19:20;18.70;98.50
5138;DHT22;53959;53.626;11.410;2022-07-06T15:21:46;18.40;99.90
5138;DHT22;53959;53.626;11.410;2022-07-06T15:24:12;18.50;99.90
5138;DHT22;53959;53.626;11.410;2022-07-06T15:26:38;18.30;99.90
5138;DHT22;53959;53.626;11.410;2022-07-06T15:29:03;18.40;99.90
5138;DHT22;53959;53.626;11.410;2022-07-06T15:31:29;18.50;99.90
5138;DHT22;53959;53.626;11.410;2022-07-06T15:33:56;18.20;99.90
5138;DHT22;53959;53.626;11.410;2022-07-06T15:36:22;18.20;99.90
5138;DHT22;53959;53.626;11.410;2022-07-06T15:38:47;18.00;99.90
5138;DHT22;53959;53.626;11.410;2022-07-06T15:41:13;18.20;99.90
5138;DHT22;53959;53.626;11.410;2022-07-06T15:43:38;18.10;99.90
5138;DHT22;53959;53.626;11.410;2022-07-06T15:46:04;17.90;99.90